createdAt,value
2017-01-08T00:00:14.167Z,96.14
2017-01-08T00:00:35.898Z,96.15
2017-01-08T00:00:57.663Z,96.14
2017-01-08T00:01:19.414Z,96.18
2017-01-08T00:01:41.165Z,96.18
2017-01-08T00:02:02.916Z,96.17
2017-01-08T00:02:24.662Z,96.19
2017-01-08T00:02:46.399Z,96.23
2017-01-08T00:03:08.140Z,96.26
2017-01-08T00:03:29.976Z,96.26
2017-01-08T00:03:51.723Z,96.38
2017-01-08T00:04:13.482Z,96.40
2017-01-08T00:04:35.228Z,96.36
2017-01-08T00:04:56.979Z,96.36
2017-01-08T00:05:23.494Z,96.36
2017-01-08T00:05:45.245Z,96.39
2017-01-08T00:06:06.999Z,96.39
2017-01-08T00:06:28.761Z,96.37
2017-01-08T00:06:50.503Z,96.34
2017-01-08T00:07:12.250Z,96.38
2017-01-08T00:07:33.995Z,96.39
2017-01-08T00:07:55.743Z,96.36
2017-01-08T00:08:17.492Z,96.38
2017-01-08T00:08:39.231Z,96.33
2017-01-08T00:09:00.999Z,96.38
2017-01-08T00:09:22.737Z,96.44
2017-01-08T00:09:44.484Z,96.41
2017-01-08T00:10:06.244Z,96.38
2017-01-08T00:10:27.993Z,96.29
2017-01-08T00:10:49.754Z,96.33
2017-01-08T00:11:11.496Z,96.41
2017-01-08T00:11:33.248Z,96.43
2017-01-08T00:11:54.998Z,96.33
2017-01-08T00:12:16.733Z,96.38
2017-01-08T00:12:38.472Z,96.44
2017-01-08T00:13:00.231Z,96.42
2017-01-08T00:13:21.997Z,96.43
2017-01-08T00:13:43.732Z,96.46
2017-01-08T00:14:05.608Z,96.48
2017-01-08T00:14:27.363Z,96.47
2017-01-08T00:14:49.134Z,96.50
2017-01-08T00:15:10.873Z,96.49
2017-01-08T00:15:32.631Z,96.48
2017-01-08T00:15:54.372Z,96.48
2017-01-08T00:16:16.141Z,96.49
2017-01-08T00:16:37.888Z,96.50
2017-01-08T00:16:59.657Z,96.45
2017-01-08T00:17:21.401Z,96.41
2017-01-08T00:17:43.152Z,96.43
2017-01-08T00:18:04.897Z,96.36
2017-01-08T00:18:26.777Z,96.38
2017-01-08T00:18:48.473Z,96.39
2017-01-08T00:19:10.221Z,96.42
2017-01-08T00:19:32.007Z,96.42
2017-01-08T00:19:53.750Z,96.43
2017-01-08T00:20:15.492Z,96.42
2017-01-08T00:20:37.236Z,96.39
2017-01-08T00:20:59.015Z,96.37
2017-01-08T00:21:20.765Z,96.36
2017-01-08T00:21:42.502Z,96.35
2017-01-08T00:22:04.243Z,96.30
2017-01-08T00:22:25.989Z,96.32
2017-01-08T00:22:47.742Z,96.30
2017-01-08T00:23:09.732Z,96.36
2017-01-08T00:23:31.383Z,96.38
2017-01-08T00:23:53.117Z,96.41
2017-01-08T00:24:14.874Z,96.40
2017-01-08T00:24:36.624Z,96.40
2017-01-08T00:24:58.359Z,96.41
2017-01-08T00:25:20.095Z,96.42
2017-01-08T00:25:41.831Z,96.42
2017-01-08T00:26:03.577Z,96.40
2017-01-08T00:26:25.335Z,96.35
2017-01-08T00:26:47.088Z,96.26
2017-01-08T00:27:08.839Z,96.36
2017-01-08T00:27:30.605Z,96.40
2017-01-08T00:27:52.471Z,96.45
2017-01-08T00:28:14.228Z,96.48
2017-01-08T00:28:35.979Z,96.49
2017-01-08T00:28:57.735Z,96.47
2017-01-08T00:29:19.472Z,96.46
2017-01-08T00:29:41.223Z,96.41
2017-01-08T00:30:03.002Z,96.42
2017-01-08T00:30:24.758Z,96.40
2017-01-08T00:30:46.499Z,96.39
2017-01-08T00:31:08.254Z,96.29
2017-01-08T00:31:30.017Z,96.26
2017-01-08T00:31:51.772Z,96.28
2017-01-08T00:32:13.540Z,96.30
2017-01-08T00:32:35.341Z,96.37
2017-01-08T00:32:57.098Z,96.38
2017-01-08T00:33:18.868Z,96.42
2017-01-08T00:33:40.612Z,96.38
2017-01-08T00:34:02.347Z,96.37
2017-01-08T00:34:24.100Z,96.38
2017-01-08T00:34:45.863Z,96.39
2017-01-08T00:35:07.594Z,96.39
2017-01-08T00:35:29.359Z,96.37
2017-01-08T00:35:51.092Z,96.37
2017-01-08T00:36:17.604Z,96.26
2017-01-08T00:36:39.355Z,96.24
2017-01-08T00:37:01.114Z,96.28
2017-01-08T00:37:22.874Z,96.33
2017-01-08T00:37:44.695Z,96.33
2017-01-08T00:38:06.433Z,96.29
2017-01-08T00:38:28.292Z,96.35
2017-01-08T00:38:50.036Z,96.36
2017-01-08T00:39:11.783Z,96.28
2017-01-08T00:39:33.521Z,96.36
2017-01-08T00:39:55.259Z,96.40
2017-01-08T00:40:17.025Z,96.40
2017-01-08T00:40:38.763Z,96.35
2017-01-08T00:41:00.507Z,96.30
2017-01-08T00:41:22.251Z,96.30
2017-01-08T00:41:44.007Z,96.41
2017-01-08T00:42:05.747Z,96.49
2017-01-08T00:42:27.499Z,96.50
2017-01-08T00:42:49.248Z,96.53
2017-01-08T00:43:11.028Z,96.50
2017-01-08T00:43:32.765Z,96.42
2017-01-08T00:43:54.513Z,96.37
2017-01-08T00:44:16.266Z,96.35
2017-01-08T00:44:38.010Z,96.31
2017-01-08T00:44:59.745Z,96.30
2017-01-08T00:45:21.488Z,96.31
2017-01-08T00:45:43.229Z,96.28
2017-01-08T00:46:04.983Z,96.28
2017-01-08T00:46:26.721Z,96.33
2017-01-08T00:46:48.484Z,96.41
2017-01-08T00:47:10.222Z,96.48
2017-01-08T00:47:31.974Z,96.53
2017-01-08T00:47:53.817Z,96.53
2017-01-08T00:48:15.562Z,96.46
2017-01-08T00:48:37.301Z,96.34
2017-01-08T00:48:59.032Z,96.28
2017-01-08T00:49:20.805Z,96.34
2017-01-08T00:49:42.516Z,96.40
2017-01-08T00:50:09.026Z,96.42
2017-01-08T00:50:30.784Z,96.45
2017-01-08T00:50:52.526Z,96.43
2017-01-08T00:51:14.266Z,96.46
2017-01-08T00:51:36.043Z,96.49
2017-01-08T00:51:57.781Z,96.47
2017-01-08T00:52:19.541Z,96.58
2017-01-08T00:52:41.291Z,96.61
2017-01-08T00:53:03.041Z,96.65
2017-01-08T00:53:24.789Z,96.59
2017-01-08T00:53:46.651Z,96.62
2017-01-08T00:54:08.412Z,96.68
2017-01-08T00:54:30.148Z,96.61
2017-01-08T00:54:51.925Z,96.58
2017-01-08T00:55:13.669Z,96.50
2017-01-08T00:56:01.934Z,96.56
2017-01-08T00:56:23.679Z,96.62
2017-01-08T00:56:45.416Z,96.66
2017-01-08T00:57:07.152Z,96.64
2017-01-08T00:57:28.916Z,96.64
2017-01-08T00:57:50.670Z,96.60
2017-01-08T00:58:12.402Z,96.62
2017-01-08T00:58:34.190Z,96.62
2017-01-08T00:59:00.703Z,96.63
2017-01-08T00:59:23.452Z,96.64
2017-01-08T00:59:46.206Z,96.65
2017-01-08T01:00:07.944Z,96.68
2017-01-08T01:00:29.730Z,96.65
2017-01-08T01:00:51.474Z,96.67
2017-01-08T01:01:13.243Z,96.63
2017-01-08T01:02:01.695Z,96.69
2017-01-08T01:02:23.422Z,96.71
2017-01-08T01:02:45.164Z,96.72
2017-01-08T01:03:06.924Z,96.75
2017-01-08T01:03:28.684Z,96.76
2017-01-08T01:03:50.421Z,96.77
2017-01-08T01:04:12.181Z,96.76
2017-01-08T01:04:33.919Z,96.81
2017-01-08T01:04:55.666Z,96.84
2017-01-08T01:05:17.469Z,96.88
2017-01-08T01:05:39.231Z,96.86
2017-01-08T01:06:00.974Z,96.82
2017-01-08T01:06:23.711Z,96.78
2017-01-08T01:06:45.455Z,96.69
2017-01-08T01:07:07.223Z,96.67
2017-01-08T01:07:29.063Z,96.63
2017-01-08T01:07:50.793Z,96.60
2017-01-08T01:08:12.545Z,96.59
2017-01-08T01:08:34.283Z,96.54
2017-01-08T01:08:56.024Z,96.55
2017-01-08T01:09:17.777Z,96.60
2017-01-08T01:09:39.531Z,96.60
2017-01-08T01:10:01.289Z,96.61
2017-01-08T01:10:23.027Z,96.59
2017-01-08T01:10:44.766Z,96.64
2017-01-08T01:11:11.274Z,96.65
2017-01-08T01:11:33.013Z,96.67
2017-01-08T01:12:21.285Z,96.76
2017-01-08T01:12:43.030Z,96.77
2017-01-08T01:13:04.765Z,96.68
2017-01-08T01:13:26.507Z,96.68
2017-01-08T01:13:48.280Z,96.73
2017-01-08T01:14:10.024Z,96.75
2017-01-08T01:14:31.849Z,96.68
2017-01-08T01:14:53.596Z,96.60
2017-01-08T01:15:15.340Z,96.52
2017-01-08T01:15:37.090Z,96.54
2017-01-08T01:15:58.827Z,96.52
2017-01-08T01:16:20.566Z,96.60
2017-01-08T01:16:44.910Z,96.60
2017-01-08T01:17:06.664Z,96.59
2017-01-08T01:17:28.422Z,96.63
2017-01-08T01:17:50.174Z,96.60
2017-01-08T01:18:11.932Z,96.54
2017-01-08T01:18:33.673Z,96.57
2017-01-08T01:18:55.438Z,96.58
2017-01-08T01:19:17.183Z,96.60
2017-01-08T01:19:38.953Z,96.63
2017-01-08T01:20:00.703Z,96.65
2017-01-08T01:20:22.457Z,96.66
2017-01-08T01:20:44.188Z,96.60
2017-01-08T01:21:05.949Z,96.57
2017-01-08T01:21:27.685Z,96.51
2017-01-08T01:21:49.432Z,96.53
2017-01-08T01:22:11.177Z,96.57
2017-01-08T01:22:37.686Z,96.47
2017-01-08T01:22:59.424Z,96.46
2017-01-08T01:23:21.170Z,96.61
2017-01-08T01:23:42.924Z,96.64
2017-01-08T01:24:04.674Z,96.65
2017-01-08T01:24:31.208Z,96.67
2017-01-08T01:24:52.968Z,96.70
2017-01-08T01:25:14.682Z,96.67
2017-01-08T01:25:36.431Z,96.60
2017-01-08T01:25:58.182Z,96.63
2017-01-08T01:26:19.926Z,96.59
2017-01-08T01:26:41.666Z,96.59
2017-01-08T01:27:03.427Z,96.63
2017-01-08T01:27:25.167Z,96.59
2017-01-08T01:27:46.921Z,96.68
2017-01-08T01:28:08.662Z,96.61
2017-01-08T01:28:30.406Z,96.60
2017-01-08T01:28:52.150Z,96.68
2017-01-08T01:29:13.897Z,96.71
2017-01-08T01:29:35.651Z,96.74
2017-01-08T01:29:57.401Z,96.68
2017-01-08T01:30:19.145Z,96.70
2017-01-08T01:30:40.887Z,96.61
2017-01-08T01:31:02.640Z,96.72
2017-01-08T01:31:24.384Z,96.71
2017-01-08T01:31:46.137Z,96.65
2017-01-08T01:32:07.892Z,96.68
2017-01-08T01:32:29.633Z,96.65
2017-01-08T01:32:51.375Z,96.59
2017-01-08T01:33:13.129Z,96.68
2017-01-08T01:33:34.864Z,96.64
2017-01-08T01:33:56.605Z,96.56
2017-01-08T01:34:18.352Z,96.51
2017-01-08T01:34:40.090Z,96.45
2017-01-08T01:35:01.856Z,96.45
2017-01-08T01:35:23.608Z,96.44
2017-01-08T01:36:11.853Z,96.50
2017-01-08T01:36:33.604Z,96.48
2017-01-08T01:36:55.362Z,96.51
2017-01-08T01:37:17.108Z,96.57
2017-01-08T01:37:38.861Z,96.57
2017-01-08T01:38:00.607Z,96.49
2017-01-08T01:38:23.351Z,96.46
2017-01-08T01:38:45.085Z,96.42
2017-01-08T01:39:06.826Z,96.43
2017-01-08T01:39:28.602Z,96.46
2017-01-08T01:39:51.354Z,96.49
2017-01-08T01:40:13.104Z,96.49
2017-01-08T01:40:34.861Z,96.46
2017-01-08T01:40:56.602Z,96.52
2017-01-08T01:41:19.374Z,96.51
2017-01-08T01:41:41.127Z,96.51
2017-01-08T01:42:03.027Z,96.55
2017-01-08T01:42:24.775Z,96.55
2017-01-08T01:42:46.523Z,96.58
2017-01-08T01:43:08.269Z,96.57
2017-01-08T01:43:30.004Z,96.57
2017-01-08T01:43:51.743Z,96.58
2017-01-08T01:44:13.507Z,96.59
2017-01-08T01:44:35.247Z,96.59
2017-01-08T01:44:56.986Z,96.57
2017-01-08T01:45:18.724Z,96.53
2017-01-08T01:45:40.480Z,96.44
2017-01-08T01:46:02.222Z,96.43
2017-01-08T01:46:23.967Z,96.42
2017-01-08T01:46:45.834Z,96.49
2017-01-08T01:47:07.604Z,96.51
2017-01-08T01:47:29.344Z,96.54
2017-01-08T01:47:51.089Z,96.52
2017-01-08T01:48:17.609Z,96.41
2017-01-08T01:48:39.348Z,96.41
2017-01-08T01:49:01.098Z,96.46
2017-01-08T01:49:22.829Z,96.52
2017-01-08T01:49:44.571Z,96.48
2017-01-08T01:50:06.324Z,96.41
2017-01-08T01:50:28.105Z,96.47
2017-01-08T01:50:54.601Z,96.46
2017-01-08T01:51:16.345Z,96.48
2017-01-08T01:51:38.086Z,96.44
2017-01-08T01:51:59.818Z,96.34
2017-01-08T01:52:21.588Z,96.28
2017-01-08T01:52:43.338Z,96.29
2017-01-08T01:53:05.107Z,96.41
2017-01-08T01:53:26.856Z,96.47
2017-01-08T01:53:48.625Z,96.51
2017-01-08T01:54:10.438Z,96.51
2017-01-08T01:54:58.689Z,96.46
2017-01-08T01:55:20.456Z,96.49
2017-01-08T01:55:42.203Z,96.55
2017-01-08T01:56:03.950Z,96.48
2017-01-08T01:56:25.709Z,96.43
2017-01-08T01:56:47.464Z,96.36
2017-01-08T01:57:09.217Z,96.41
2017-01-08T01:57:30.954Z,96.44
2017-01-08T01:57:52.701Z,96.49
2017-01-08T01:58:19.210Z,96.56
2017-01-08T01:58:41.968Z,96.52
2017-01-08T01:59:03.701Z,96.44
2017-01-08T01:59:26.455Z,96.39
2017-01-08T01:59:48.199Z,96.43
2017-01-08T02:00:09.939Z,96.48
2017-01-08T02:00:31.680Z,96.43
2017-01-08T02:00:53.550Z,96.28
2017-01-08T02:01:15.287Z,96.34
2017-01-08T02:02:03.611Z,96.33
2017-01-08T02:02:25.388Z,96.43
2017-01-08T02:02:47.143Z,96.32
2017-01-08T02:03:08.887Z,96.25
2017-01-08T02:03:30.651Z,96.24
2017-01-08T02:03:52.410Z,96.24
2017-01-08T02:04:14.158Z,96.26
2017-01-08T02:04:35.896Z,96.26
2017-01-08T02:04:57.639Z,96.25
2017-01-08T02:05:19.387Z,96.29
2017-01-08T02:05:41.130Z,96.25
2017-01-08T02:06:02.871Z,96.29
2017-01-08T02:06:24.613Z,96.35
2017-01-08T02:06:46.624Z,96.37
2017-01-08T02:07:08.357Z,96.36
2017-01-08T02:07:30.103Z,96.33
2017-01-08T02:07:51.841Z,96.24
2017-01-08T02:08:13.579Z,96.21
2017-01-08T02:08:35.319Z,96.22
2017-01-08T02:08:57.077Z,96.31
2017-01-08T02:09:18.836Z,96.24
2017-01-08T02:09:45.338Z,96.30
2017-01-08T02:10:16.612Z,96.25
2017-01-08T02:10:38.359Z,96.22
2017-01-08T02:11:00.107Z,96.14
2017-01-08T02:11:21.851Z,96.10
2017-01-08T02:11:43.624Z,96.18
2017-01-08T02:12:05.365Z,96.29
2017-01-08T02:12:27.108Z,96.33
2017-01-08T02:12:48.855Z,96.30
2017-01-08T02:13:11.607Z,96.27
2017-01-08T02:13:33.355Z,96.22
2017-01-08T02:13:56.101Z,96.24
2017-01-08T02:14:17.858Z,96.29
2017-01-08T02:14:39.621Z,96.28
2017-01-08T02:15:01.383Z,96.37
2017-01-08T02:15:23.125Z,96.40
2017-01-08T02:15:44.891Z,96.35
2017-01-08T02:16:06.634Z,96.34
2017-01-08T02:16:31.062Z,96.29
2017-01-08T02:16:52.811Z,96.27
2017-01-08T02:17:14.555Z,96.27
2017-01-08T02:17:36.295Z,96.28
2017-01-08T02:17:58.039Z,96.28
2017-01-08T02:18:19.787Z,96.20
2017-01-08T02:18:42.548Z,96.12
2017-01-08T02:19:04.296Z,96.20
2017-01-08T02:19:26.043Z,96.26
2017-01-08T02:19:47.802Z,96.22
2017-01-08T02:20:09.548Z,96.16
2017-01-08T02:20:31.291Z,96.15
2017-01-08T02:20:53.029Z,96.23
2017-01-08T02:21:14.790Z,96.29
2017-01-08T02:21:36.526Z,96.24
2017-01-08T02:21:58.271Z,96.23
2017-01-08T02:22:20.020Z,96.17
2017-01-08T02:22:41.746Z,96.17
2017-01-08T02:23:03.548Z,96.13
2017-01-08T02:23:25.292Z,96.10
2017-01-08T02:23:47.034Z,96.12
2017-01-08T02:24:08.783Z,96.14
2017-01-08T02:24:30.545Z,96.16
2017-01-08T02:24:52.290Z,96.16
2017-01-08T02:25:14.047Z,96.16
2017-01-08T02:25:35.785Z,96.17
2017-01-08T02:25:57.608Z,96.17
2017-01-08T02:26:19.352Z,96.13
2017-01-08T02:26:41.090Z,96.16
2017-01-08T02:27:29.331Z,96.14
2017-01-08T02:28:17.608Z,96.26
2017-01-08T02:28:39.339Z,96.32
2017-01-08T02:29:01.077Z,96.24
2017-01-08T02:29:22.837Z,96.25
2017-01-08T02:29:44.588Z,96.29
2017-01-08T02:30:06.345Z,96.29
2017-01-08T02:30:28.088Z,96.29
2017-01-08T02:30:49.854Z,96.31
2017-01-08T02:31:11.602Z,96.29
2017-01-08T02:31:33.352Z,96.21
2017-01-08T02:31:55.112Z,96.15
2017-01-08T02:32:16.849Z,96.19
2017-01-08T02:32:38.615Z,96.18
2017-01-08T02:33:00.372Z,96.16
2017-01-08T02:33:22.124Z,96.19
2017-01-08T02:33:43.869Z,96.15
2017-01-08T02:34:05.608Z,96.19
2017-01-08T02:34:27.361Z,96.18
2017-01-08T02:34:49.103Z,96.17
2017-01-08T02:35:10.847Z,96.21
2017-01-08T02:35:32.609Z,96.24
2017-01-08T02:35:54.350Z,96.27
2017-01-08T02:36:16.120Z,96.27
2017-01-08T02:36:37.861Z,96.23
2017-01-08T02:36:59.598Z,96.21
2017-01-08T02:37:21.346Z,96.18
2017-01-08T02:37:43.090Z,96.17
2017-01-08T02:38:04.827Z,96.28
2017-01-08T02:38:26.561Z,96.29
2017-01-08T02:38:48.323Z,96.26
2017-01-08T02:39:10.071Z,96.22
2017-01-08T02:39:31.822Z,96.16
2017-01-08T02:39:53.572Z,96.07
2017-01-08T02:40:15.329Z,96.09
2017-01-08T02:40:37.099Z,96.17
2017-01-08T02:40:58.845Z,96.26
2017-01-08T02:41:20.586Z,96.28
2017-01-08T02:41:42.328Z,96.23
2017-01-08T02:42:08.843Z,96.15
2017-01-08T02:42:30.587Z,96.26
2017-01-08T02:42:52.330Z,96.29
2017-01-08T02:43:14.080Z,96.29
2017-01-08T02:43:35.815Z,96.19
2017-01-08T02:43:58.567Z,96.14
2017-01-08T02:44:20.304Z,96.15
2017-01-08T02:44:42.048Z,96.15
2017-01-08T02:45:03.793Z,96.15
2017-01-08T02:45:25.540Z,96.15
2017-01-08T02:45:47.302Z,96.11
2017-01-08T02:46:09.085Z,96.10
2017-01-08T02:46:30.855Z,96.15
2017-01-08T02:46:52.607Z,96.08
2017-01-08T02:47:14.352Z,96.17
2017-01-08T02:47:36.103Z,96.21
2017-01-08T02:48:02.605Z,96.15
2017-01-08T02:48:24.355Z,96.18
2017-01-08T02:48:46.092Z,96.22
2017-01-08T02:49:07.844Z,96.23
2017-01-08T02:49:30.601Z,96.31
2017-01-08T02:49:52.346Z,96.24
2017-01-08T02:50:14.071Z,96.23
2017-01-08T02:50:35.815Z,96.21
2017-01-08T02:51:00.292Z,96.25
2017-01-08T02:51:22.039Z,96.30
2017-01-08T02:51:43.801Z,96.26
2017-01-08T02:52:05.545Z,96.23
2017-01-08T02:52:28.284Z,96.28
2017-01-08T02:52:51.024Z,96.30
2017-01-08T02:53:19.740Z,96.32
2017-01-08T02:53:41.536Z,96.31
2017-01-08T02:54:03.267Z,96.26
2017-01-08T02:54:25.026Z,96.21
2017-01-08T02:54:46.784Z,96.23
2017-01-08T02:55:08.528Z,96.31
2017-01-08T02:55:30.278Z,96.38
2017-01-08T02:55:53.061Z,96.44
2017-01-08T02:56:14.797Z,96.39
2017-01-08T02:56:36.556Z,96.30
2017-01-08T02:56:59.302Z,96.28
2017-01-08T02:57:25.814Z,96.17
2017-01-08T02:57:47.583Z,96.11
2017-01-08T02:58:09.343Z,96.10
2017-01-08T02:58:31.082Z,96.08
2017-01-08T02:58:52.825Z,96.19
2017-01-08T02:59:14.587Z,96.25
2017-01-08T02:59:36.339Z,96.26
2017-01-08T02:59:58.085Z,96.23
2017-01-08T03:00:24.591Z,96.22
2017-01-08T03:00:46.326Z,96.24
2017-01-08T03:01:17.602Z,96.19
2017-01-08T03:01:39.358Z,96.27
2017-01-08T03:02:01.093Z,96.24
2017-01-08T03:02:22.854Z,96.24
2017-01-08T03:02:44.607Z,96.23
2017-01-08T03:03:06.351Z,96.26
2017-01-08T03:03:28.092Z,96.27
2017-01-08T03:03:49.844Z,96.27
2017-01-08T03:04:11.592Z,96.22
2017-01-08T03:04:33.362Z,96.13
2017-01-08T03:04:56.091Z,96.08
2017-01-08T03:05:17.879Z,96.19
2017-01-08T03:05:39.612Z,96.23
2017-01-08T03:06:01.343Z,96.20
2017-01-08T03:06:23.082Z,96.26
2017-01-08T03:06:44.837Z,96.30
2017-01-08T03:07:06.574Z,96.16
2017-01-08T03:07:28.321Z,96.17
2017-01-08T03:07:50.168Z,96.22
2017-01-08T03:08:11.903Z,96.22
2017-01-08T03:08:33.648Z,96.20
2017-01-08T03:08:55.400Z,96.19
2017-01-08T03:09:17.155Z,96.28
2017-01-08T03:09:38.894Z,96.30
2017-01-08T03:10:00.654Z,96.22
2017-01-08T03:10:22.403Z,96.15
2017-01-08T03:10:44.134Z,96.08
2017-01-08T03:11:05.878Z,96.07
2017-01-08T03:11:27.618Z,96.05
2017-01-08T03:11:49.366Z,96.01
2017-01-08T03:12:11.154Z,95.99
2017-01-08T03:12:32.917Z,96.06
2017-01-08T03:12:54.660Z,96.11
2017-01-08T03:13:16.403Z,96.10
2017-01-08T03:13:39.144Z,96.10
2017-01-08T03:14:00.892Z,96.11
2017-01-08T03:14:22.630Z,96.10
2017-01-08T03:14:45.379Z,96.04
2017-01-08T03:15:07.144Z,96.03
2017-01-08T03:15:28.895Z,96.02
2017-01-08T03:15:50.631Z,96.03
2017-01-08T03:16:12.374Z,96.05
2017-01-08T03:16:34.120Z,96.07
2017-01-08T03:17:00.642Z,96.03
2017-01-08T03:17:22.426Z,96.04
2017-01-08T03:17:44.181Z,96.07
2017-01-08T03:18:05.922Z,96.09
2017-01-08T03:18:28.664Z,96.13
2017-01-08T03:18:50.407Z,96.14
2017-01-08T03:19:12.170Z,96.12
2017-01-08T03:19:33.914Z,96.11
2017-01-08T03:19:55.662Z,96.10
2017-01-08T03:20:17.424Z,96.09
2017-01-08T03:20:39.210Z,96.09
2017-01-08T03:21:00.957Z,96.04
2017-01-08T03:21:22.702Z,96.03
2017-01-08T03:21:44.449Z,96.04
2017-01-08T03:22:06.208Z,96.08
2017-01-08T03:22:29.022Z,96.07
2017-01-08T03:22:50.764Z,96.04
2017-01-08T03:23:12.526Z,96.01
2017-01-08T03:23:34.263Z,95.95
2017-01-08T03:23:56.010Z,95.97
2017-01-08T03:24:20.353Z,95.96
2017-01-08T03:24:42.102Z,95.95
2017-01-08T03:25:03.850Z,96.00
2017-01-08T03:25:25.594Z,95.98
2017-01-08T03:25:47.344Z,96.00
2017-01-08T03:26:09.101Z,96.08
2017-01-08T03:26:30.842Z,96.13
2017-01-08T03:26:53.597Z,96.17
2017-01-08T03:27:15.351Z,96.09
2017-01-08T03:27:37.098Z,96.03
2017-01-08T03:27:58.845Z,96.02
2017-01-08T03:28:21.578Z,96.07
2017-01-08T03:28:43.319Z,96.03
2017-01-08T03:29:05.075Z,95.97
2017-01-08T03:29:26.812Z,95.92
2017-01-08T03:29:48.559Z,95.88
2017-01-08T03:30:10.306Z,95.98
2017-01-08T03:30:32.049Z,95.98
2017-01-08T03:30:53.797Z,95.95
2017-01-08T03:31:15.554Z,95.92
2017-01-08T03:31:37.296Z,95.98
2017-01-08T03:31:59.053Z,95.95
2017-01-08T03:32:20.803Z,96.01
2017-01-08T03:32:43.615Z,96.07
2017-01-08T03:33:05.363Z,96.07
2017-01-08T03:33:27.110Z,96.00
2017-01-08T03:33:48.860Z,96.02
2017-01-08T03:34:11.599Z,96.06
2017-01-08T03:34:33.339Z,96.08
2017-01-08T03:34:55.088Z,96.06
2017-01-08T03:35:22.597Z,96.09
2017-01-08T03:35:44.367Z,96.12
2017-01-08T03:36:06.117Z,96.14
2017-01-08T03:36:32.651Z,96.09
2017-01-08T03:36:59.167Z,96.04
2017-01-08T03:37:20.901Z,96.05
2017-01-08T03:37:42.664Z,96.03
2017-01-08T03:38:04.418Z,96.01
2017-01-08T03:38:26.159Z,96.00
2017-01-08T03:38:47.912Z,96.07
2017-01-08T03:39:09.656Z,96.04
2017-01-08T03:39:31.404Z,95.98
2017-01-08T03:39:53.176Z,95.98
2017-01-08T03:40:14.937Z,95.91
2017-01-08T03:40:41.448Z,95.99
2017-01-08T03:41:03.183Z,96.06
2017-01-08T03:41:24.930Z,96.12
2017-01-08T03:41:47.752Z,96.06
2017-01-08T03:42:09.554Z,96.05
2017-01-08T03:42:31.319Z,96.08
2017-01-08T03:42:53.068Z,96.10
2017-01-08T03:43:14.824Z,96.11
2017-01-08T03:43:36.562Z,96.06
2017-01-08T03:43:58.328Z,96.03
2017-01-08T03:44:20.072Z,96.04
2017-01-08T03:44:41.831Z,96.08
2017-01-08T03:45:03.640Z,96.14
2017-01-08T03:45:25.382Z,96.11
2017-01-08T03:45:47.126Z,96.09
2017-01-08T03:46:08.867Z,95.95
2017-01-08T03:46:30.607Z,95.92
2017-01-08T03:46:52.351Z,95.98
2017-01-08T03:47:14.110Z,96.03
2017-01-08T03:47:35.848Z,95.99
2017-01-08T03:47:57.593Z,96.02
2017-01-08T03:48:19.355Z,96.00
2017-01-08T03:48:41.087Z,95.92
2017-01-08T03:49:03.826Z,95.93
2017-01-08T03:49:25.556Z,95.86
2017-01-08T03:49:47.306Z,95.91
2017-01-08T03:50:09.045Z,95.97
2017-01-08T03:50:31.781Z,96.04
2017-01-08T03:50:53.522Z,95.96
2017-01-08T03:51:20.026Z,96.01
2017-01-08T03:51:41.759Z,96.05
2017-01-08T03:52:03.544Z,96.08
2017-01-08T03:52:25.234Z,96.07
2017-01-08T03:52:46.994Z,96.01
2017-01-08T03:53:08.731Z,96.00
2017-01-08T03:53:35.243Z,95.98
2017-01-08T03:53:57.001Z,95.96
2017-01-08T03:54:18.740Z,96.03
2017-01-08T03:54:40.469Z,96.05
2017-01-08T03:55:02.216Z,96.04
2017-01-08T03:55:24.977Z,96.05
2017-01-08T03:55:51.490Z,96.02
2017-01-08T03:56:13.224Z,96.03
2017-01-08T03:56:34.958Z,96.05
2017-01-08T03:57:01.466Z,96.03
2017-01-08T03:57:23.204Z,96.03
2017-01-08T03:57:44.949Z,95.99
2017-01-08T03:58:06.686Z,95.98
2017-01-08T03:58:28.446Z,95.98
2017-01-08T03:58:50.192Z,95.94
2017-01-08T03:59:11.933Z,95.90
2017-01-08T03:59:33.681Z,95.90
2017-01-08T03:59:56.427Z,95.92
2017-01-08T04:00:18.166Z,95.93
2017-01-08T04:00:39.953Z,95.98
2017-01-08T04:01:01.672Z,95.93
2017-01-08T04:01:23.412Z,95.93
2017-01-08T04:01:45.156Z,95.98
2017-01-08T04:02:06.886Z,95.98
2017-01-08T04:02:28.635Z,96.02
2017-01-08T04:02:50.412Z,96.00
2017-01-08T04:03:12.158Z,95.96
2017-01-08T04:03:33.940Z,95.95
2017-01-08T04:03:55.691Z,95.94
2017-01-08T04:04:17.439Z,95.96
2017-01-08T04:04:39.198Z,95.98
2017-01-08T04:05:00.949Z,96.00
2017-01-08T04:05:23.703Z,96.01
2017-01-08T04:05:45.508Z,96.00
2017-01-08T04:06:07.245Z,96.02
2017-01-08T04:06:29.015Z,96.02
2017-01-08T04:06:50.987Z,96.03
2017-01-08T04:07:12.612Z,95.99
2017-01-08T04:07:34.354Z,96.00
2017-01-08T04:07:56.094Z,95.98
2017-01-08T04:08:17.843Z,96.00
2017-01-08T04:08:39.601Z,95.99
2017-01-08T04:09:01.348Z,95.95
2017-01-08T04:09:23.108Z,95.95
2017-01-08T04:09:44.881Z,95.95
2017-01-08T04:10:06.623Z,95.95
2017-01-08T04:10:28.385Z,95.89
2017-01-08T04:10:50.119Z,95.91
2017-01-08T04:11:11.889Z,95.92
2017-01-08T04:11:33.761Z,95.88
2017-01-08T04:11:55.498Z,95.94
2017-01-08T04:12:17.252Z,95.92
2017-01-08T04:12:38.996Z,95.91
2017-01-08T04:13:00.733Z,95.97
2017-01-08T04:13:22.484Z,95.98
2017-01-08T04:13:44.228Z,95.94
2017-01-08T04:14:05.981Z,95.88
2017-01-08T04:14:27.731Z,95.92
2017-01-08T04:14:49.482Z,95.93
2017-01-08T04:15:11.230Z,95.91
2017-01-08T04:15:32.966Z,95.95
2017-01-08T04:15:54.724Z,95.98
2017-01-08T04:16:16.514Z,95.95
2017-01-08T04:16:38.263Z,95.89
2017-01-08T04:17:00.017Z,95.89
2017-01-08T04:17:21.779Z,95.90
2017-01-08T04:17:43.530Z,95.88
2017-01-08T04:18:05.276Z,95.89
2017-01-08T04:18:27.030Z,95.86
2017-01-08T04:18:48.774Z,95.89
2017-01-08T04:19:15.278Z,95.93
2017-01-08T04:19:37.026Z,95.94
2017-01-08T04:20:03.531Z,95.89
2017-01-08T04:20:25.266Z,95.87
2017-01-08T04:20:48.027Z,95.84
2017-01-08T04:21:09.816Z,95.86
2017-01-08T04:21:31.556Z,95.83
2017-01-08T04:21:58.061Z,95.77
2017-01-08T04:22:19.818Z,95.70
2017-01-08T04:22:41.572Z,95.71
2017-01-08T04:23:03.326Z,95.85
2017-01-08T04:23:25.098Z,95.87
2017-01-08T04:23:46.853Z,95.80
2017-01-08T04:24:08.605Z,95.85
2017-01-08T04:24:30.622Z,95.88
2017-01-08T04:24:52.355Z,95.86
2017-01-08T04:25:14.103Z,95.84
2017-01-08T04:25:35.840Z,95.78
2017-01-08T04:25:57.625Z,95.83
2017-01-08T04:26:19.399Z,95.91
2017-01-08T04:26:41.140Z,95.88
2017-01-08T04:27:02.889Z,95.87
2017-01-08T04:27:29.385Z,95.89
2017-01-08T04:27:51.134Z,95.88
2017-01-08T04:28:12.886Z,95.89
2017-01-08T04:28:34.632Z,95.86
2017-01-08T04:28:56.380Z,95.83
2017-01-08T04:29:18.133Z,95.86
2017-01-08T04:29:44.657Z,95.87
2017-01-08T04:30:06.405Z,95.85
2017-01-08T04:30:28.139Z,95.75
2017-01-08T04:30:49.913Z,95.80
2017-01-08T04:31:11.662Z,95.78
2017-01-08T04:31:33.404Z,95.84
2017-01-08T04:31:55.147Z,95.87
2017-01-08T04:32:16.913Z,95.88
2017-01-08T04:32:38.661Z,95.90
2017-01-08T04:33:00.411Z,95.92
2017-01-08T04:33:22.147Z,95.95
2017-01-08T04:33:44.891Z,95.90
2017-01-08T04:34:06.658Z,95.87
2017-01-08T04:34:28.416Z,95.88
2017-01-08T04:34:50.163Z,95.83
2017-01-08T04:35:11.925Z,95.80
2017-01-08T04:35:33.669Z,95.75
2017-01-08T04:35:55.421Z,95.76
2017-01-08T04:36:17.273Z,95.80
2017-01-08T04:36:39.010Z,95.78
2017-01-08T04:37:00.768Z,95.80
2017-01-08T04:37:22.502Z,95.76
2017-01-08T04:37:45.246Z,95.70
2017-01-08T04:38:06.988Z,95.78
2017-01-08T04:38:28.811Z,95.79
2017-01-08T04:38:50.559Z,95.77
2017-01-08T04:39:12.305Z,95.83
2017-01-08T04:39:34.075Z,95.84
2017-01-08T04:39:55.858Z,95.75
2017-01-08T04:40:17.594Z,95.77
2017-01-08T04:40:39.344Z,95.90
2017-01-08T04:41:01.097Z,95.90
2017-01-08T04:41:22.835Z,95.90
2017-01-08T04:41:44.640Z,95.91
2017-01-08T04:42:06.416Z,95.92
2017-01-08T04:42:28.160Z,95.78
2017-01-08T04:42:49.904Z,95.84
2017-01-08T04:43:11.654Z,95.86
2017-01-08T04:43:33.400Z,95.87
2017-01-08T04:43:55.154Z,95.92
2017-01-08T04:44:16.911Z,95.96
2017-01-08T04:44:39.663Z,95.97
2017-01-08T04:45:01.420Z,95.93
2017-01-08T04:45:24.156Z,95.91
2017-01-08T04:45:45.903Z,95.90
2017-01-08T04:46:07.645Z,95.84
2017-01-08T04:46:29.388Z,95.84
2017-01-08T04:46:51.146Z,95.79
2017-01-08T04:47:12.902Z,95.77